createdAt,value
2018-03-31T00:01:31.970Z,80.17
2018-03-31T00:04:00.919Z,79.37
2018-03-31T00:06:29.830Z,79.67
2018-03-31T00:08:58.774Z,78.70
2018-03-31T00:11:27.678Z,80.17
2018-03-31T00:13:56.607Z,79.47
2018-03-31T00:16:25.529Z,82.40
2018-03-31T00:18:54.436Z,79.80
2018-03-31T00:21:23.330Z,84.83
2018-03-31T00:23:52.268Z,78.77
2018-03-31T00:26:21.288Z,81.20
2018-03-31T00:28:50.238Z,81.67
2018-03-31T00:31:19.129Z,79.93
2018-03-31T00:33:48.062Z,80.47
2018-03-31T00:36:16.976Z,81.00
2018-03-31T00:38:45.870Z,79.07
2018-03-31T00:41:14.805Z,79.10
2018-03-31T00:43:44.325Z,78.60
2018-03-31T00:46:12.605Z,79.90
2018-03-31T00:48:41.538Z,84.50
2018-03-31T00:51:10.508Z,80.97
2018-03-31T00:53:39.410Z,80.27
2018-03-31T00:56:08.320Z,82.30
2018-03-31T00:58:37.257Z,80.27
2018-03-31T01:01:06.157Z,83.80
2018-03-31T01:03:35.091Z,84.90
2018-03-31T01:06:04.004Z,82.20
2018-03-31T01:08:32.941Z,82.47
2018-03-31T01:11:01.858Z,83.00
2018-03-31T01:13:30.809Z,84.30
2018-03-31T01:15:59.742Z,83.80
2018-03-31T01:18:28.644Z,85.10
2018-03-31T01:20:57.552Z,84.10
2018-03-31T01:23:26.506Z,85.37
2018-03-31T01:25:55.420Z,85.90
2018-03-31T01:28:24.336Z,86.33
2018-03-31T01:30:53.245Z,86.20
2018-03-31T01:33:22.162Z,88.43
2018-03-31T01:35:51.098Z,86.07
2018-03-31T01:38:19.990Z,86.00
2018-03-31T01:40:48.886Z,88.27
2018-03-31T01:43:17.924Z,85.60
2018-03-31T01:45:46.818Z,86.60
2018-03-31T01:48:15.732Z,85.20
2018-03-31T01:50:44.664Z,83.97
2018-03-31T01:53:13.570Z,84.07
2018-03-31T01:55:42.473Z,84.27
2018-03-31T01:58:11.403Z,85.27
2018-03-31T02:00:40.299Z,82.90
2018-03-31T02:03:09.266Z,81.23
2018-03-31T02:05:38.175Z,79.47
2018-03-31T02:08:07.090Z,80.20
2018-03-31T02:10:36.005Z,81.47
2018-03-31T02:13:04.911Z,80.70
2018-03-31T02:15:33.821Z,81.30
2018-03-31T02:18:02.768Z,77.00
2018-03-31T02:20:31.673Z,78.97
2018-03-31T02:23:00.583Z,81.47
2018-03-31T02:25:29.506Z,79.00
2018-03-31T02:27:58.397Z,79.57
2018-03-31T02:30:27.298Z,78.77
2018-03-31T02:32:56.234Z,79.20
2018-03-31T02:35:25.133Z,81.40
2018-03-31T02:37:54.071Z,78.27
2018-03-31T02:40:22.991Z,77.70
2018-03-31T02:42:51.941Z,78.40
2018-03-31T02:45:21.239Z,78.43
2018-03-31T02:47:50.141Z,78.97
2018-03-31T02:50:19.071Z,79.10
2018-03-31T02:52:48.012Z,78.83
2018-03-31T02:55:16.966Z,83.27
2018-03-31T02:57:45.862Z,76.50
2018-03-31T03:00:14.782Z,76.67
2018-03-31T03:02:43.694Z,77.27
2018-03-31T03:05:12.632Z,76.17
2018-03-31T03:07:41.565Z,75.77
2018-03-31T03:10:10.475Z,76.67
2018-03-31T03:12:39.376Z,79.00
2018-03-31T03:15:08.299Z,80.53
2018-03-31T03:17:37.193Z,74.53
2018-03-31T03:20:06.089Z,74.50
2018-03-31T03:22:35.027Z,77.17
2018-03-31T03:25:03.968Z,75.47
2018-03-31T03:27:32.875Z,76.67
2018-03-31T03:30:01.822Z,77.23
2018-03-31T03:32:30.730Z,75.07
2018-03-31T03:34:59.663Z,77.30
2018-03-31T03:37:28.565Z,75.63
2018-03-31T03:39:57.468Z,76.57
2018-03-31T03:42:26.410Z,79.60
2018-03-31T03:44:55.309Z,80.83
2018-03-31T03:47:24.439Z,76.80
2018-03-31T03:49:53.381Z,77.40
2018-03-31T03:52:22.276Z,76.70
2018-03-31T03:54:51.191Z,76.17
2018-03-31T03:57:20.138Z,75.97
2018-03-31T03:59:49.056Z,74.83
2018-03-31T04:02:17.949Z,76.07
2018-03-31T04:04:46.903Z,76.70
2018-03-31T04:07:15.829Z,76.90
2018-03-31T04:09:44.876Z,77.70
2018-03-31T04:12:13.853Z,75.70
2018-03-31T04:14:42.824Z,77.60
2018-03-31T04:17:11.745Z,78.17
2018-03-31T04:19:40.654Z,77.97
2018-03-31T04:22:09.585Z,77.60
2018-03-31T04:24:38.498Z,77.77
2018-03-31T04:27:07.397Z,78.30
2018-03-31T04:29:36.302Z,81.80
2018-03-31T04:32:05.246Z,79.47
2018-03-31T04:34:34.185Z,78.10
2018-03-31T04:37:03.091Z,78.77
2018-03-31T04:39:32.037Z,77.30
2018-03-31T04:42:00.940Z,76.77
2018-03-31T04:44:29.836Z,76.50
2018-03-31T04:46:58.773Z,78.97
2018-03-31T04:49:28.168Z,80.10
2018-03-31T04:51:57.118Z,78.27
2018-03-31T04:54:26.753Z,77.27
2018-03-31T04:56:55.649Z,77.00
2018-03-31T04:59:24.554Z,76.27
2018-03-31T05:01:53.486Z,78.00
2018-03-31T05:04:22.389Z,77.37
2018-03-31T05:06:51.290Z,77.77
2018-03-31T05:09:20.214Z,76.17
2018-03-31T05:11:49.111Z,75.60
2018-03-31T05:14:18.030Z,78.43
2018-03-31T05:16:47.009Z,78.40
2018-03-31T05:19:15.913Z,77.87
2018-03-31T05:21:44.825Z,78.30
2018-03-31T05:24:13.741Z,76.63
2018-03-31T05:26:42.656Z,77.10
2018-03-31T05:29:11.561Z,76.87
2018-03-31T05:31:40.489Z,77.50
2018-03-31T05:34:09.422Z,78.20
2018-03-31T05:36:38.337Z,78.30
2018-03-31T05:39:07.242Z,77.80
2018-03-31T05:41:36.137Z,77.63
2018-03-31T05:44:05.053Z,78.80
2018-03-31T05:46:33.961Z,80.27
2018-03-31T05:49:02.863Z,79.13
2018-03-31T05:51:31.781Z,78.60
2018-03-31T05:54:00.721Z,82.00
2018-03-31T05:56:29.619Z,81.40
2018-03-31T05:58:58.526Z,79.27
2018-03-31T06:01:27.472Z,78.97
2018-03-31T06:03:56.387Z,79.40
2018-03-31T06:06:25.296Z,77.57
2018-03-31T06:08:54.228Z,78.60
2018-03-31T06:11:23.136Z,78.87
2018-03-31T06:13:52.034Z,76.47
2018-03-31T06:16:20.968Z,77.17
2018-03-31T06:18:49.882Z,76.90
2018-03-31T06:21:18.824Z,78.53
2018-03-31T06:23:47.723Z,78.80
2018-03-31T06:26:16.718Z,81.83
2018-03-31T06:28:45.754Z,80.97
2018-03-31T06:31:15.098Z,80.20
2018-03-31T06:33:44.038Z,78.20
2018-03-31T06:36:12.963Z,77.13
2018-03-31T06:38:41.866Z,76.97
2018-03-31T06:41:10.797Z,78.10
2018-03-31T06:43:39.698Z,80.00
2018-03-31T06:46:08.592Z,78.87
2018-03-31T06:48:37.539Z,78.70
2018-03-31T06:51:06.443Z,76.37
2018-03-31T06:53:35.378Z,77.67
2018-03-31T06:56:04.304Z,76.77
2018-03-31T06:58:33.223Z,78.60
2018-03-31T07:01:02.135Z,75.87
2018-03-31T07:03:31.061Z,75.90
2018-03-31T07:05:59.997Z,74.97
2018-03-31T07:08:28.913Z,74.50
2018-03-31T07:10:57.849Z,76.30
2018-03-31T07:13:26.752Z,77.20
2018-03-31T07:15:55.661Z,75.17
2018-03-31T07:18:24.602Z,79.27
2018-03-31T07:20:53.549Z,77.23
2018-03-31T07:23:22.456Z,75.27
2018-03-31T07:25:51.409Z,75.90
2018-03-31T07:28:20.324Z,75.07
2018-03-31T07:30:49.239Z,76.60
2018-03-31T07:33:18.249Z,75.97
2018-03-31T07:35:47.201Z,78.13
2018-03-31T07:38:16.098Z,77.30
2018-03-31T07:40:45.067Z,78.47
2018-03-31T07:43:13.980Z,79.87
2018-03-31T07:45:42.928Z,78.00
2018-03-31T07:48:11.868Z,78.33
2018-03-31T07:50:40.765Z,77.70
2018-03-31T07:53:09.686Z,78.27
2018-03-31T07:55:38.596Z,78.10
2018-03-31T07:58:07.571Z,77.57
2018-03-31T08:00:36.530Z,78.17
2018-03-31T08:03:05.422Z,77.20
2018-03-31T08:05:34.374Z,78.87
2018-03-31T08:08:03.269Z,79.23
2018-03-31T08:10:32.193Z,74.50
2018-03-31T08:13:01.194Z,75.63
2018-03-31T08:15:30.110Z,79.50
2018-03-31T08:17:59.472Z,75.27
2018-03-31T08:20:29.151Z,75.17
2018-03-31T08:22:58.097Z,74.37
2018-03-31T08:25:26.982Z,74.60
2018-03-31T08:27:56.031Z,75.00
2018-03-31T08:30:25.140Z,74.43
2018-03-31T08:32:53.992Z,74.60
2018-03-31T08:35:22.945Z,73.97
2018-03-31T08:37:51.845Z,77.07
2018-03-31T08:40:21.756Z,73.17
2018-03-31T08:42:50.662Z,73.20
2018-03-31T08:45:19.586Z,72.87
2018-03-31T08:47:48.541Z,73.47
2018-03-31T08:50:17.445Z,73.80
2018-03-31T08:52:46.373Z,74.93
2018-03-31T08:55:15.306Z,75.57
2018-03-31T08:57:44.207Z,74.93
2018-03-31T09:00:13.166Z,73.47
2018-03-31T09:02:42.199Z,73.83
2018-03-31T09:05:11.091Z,74.77
2018-03-31T09:07:40.002Z,73.90
2018-03-31T09:10:08.950Z,75.07
2018-03-31T09:12:37.985Z,74.57
2018-03-31T09:15:06.908Z,74.30
2018-03-31T09:17:35.813Z,74.10
2018-03-31T09:20:04.739Z,74.57
2018-03-31T09:22:33.650Z,72.80
2018-03-31T09:25:02.601Z,73.47
2018-03-31T09:27:31.559Z,73.77
2018-03-31T09:30:00.458Z,73.43
2018-03-31T09:32:29.350Z,73.70
2018-03-31T09:34:58.277Z,73.40
2018-03-31T09:37:27.173Z,72.97
2018-03-31T09:39:56.123Z,72.93
2018-03-31T09:42:25.077Z,73.20
2018-03-31T09:44:54.028Z,73.47
2018-03-31T09:47:22.941Z,73.30
2018-03-31T09:49:51.846Z,74.87
2018-03-31T09:52:20.790Z,72.70
2018-03-31T09:54:49.703Z,72.40
2018-03-31T09:57:18.621Z,73.00
2018-03-31T09:59:47.529Z,71.80
2018-03-31T10:02:16.499Z,71.83
2018-03-31T10:04:45.724Z,72.30
2018-03-31T10:07:14.648Z,72.60
2018-03-31T10:09:43.570Z,71.80
2018-03-31T10:12:12.498Z,71.27
2018-03-31T10:14:41.397Z,72.40
2018-03-31T10:17:10.298Z,72.10
2018-03-31T10:19:39.230Z,72.27
2018-03-31T10:22:08.137Z,72.97
2018-03-31T10:24:37.047Z,72.13
2018-03-31T10:27:05.979Z,72.80
2018-03-31T10:29:34.881Z,72.47
2018-03-31T10:32:03.838Z,71.40
2018-03-31T10:34:32.875Z,71.33
2018-03-31T10:37:01.818Z,71.87
2018-03-31T10:39:30.765Z,72.40
2018-03-31T10:41:59.668Z,70.47
2018-03-31T10:44:28.609Z,74.00
2018-03-31T10:46:57.513Z,70.97
2018-03-31T10:49:26.430Z,71.60
2018-03-31T10:51:55.363Z,70.17
2018-03-31T10:54:24.286Z,70.30
2018-03-31T10:56:53.188Z,69.93
2018-03-31T10:59:22.079Z,71.63
2018-03-31T11:01:50.987Z,71.20
2018-03-31T11:04:19.926Z,71.13
2018-03-31T11:06:48.856Z,70.07
2018-03-31T11:09:17.765Z,70.37
2018-03-31T11:11:46.703Z,71.40
2018-03-31T11:14:15.673Z,70.67
2018-03-31T11:16:44.570Z,73.07
2018-03-31T11:19:13.498Z,75.37
2018-03-31T11:21:42.404Z,72.23
2018-03-31T11:24:11.310Z,71.93
2018-03-31T11:26:40.418Z,72.23
2018-03-31T11:29:09.331Z,72.27
2018-03-31T11:31:38.249Z,71.80
2018-03-31T11:34:07.160Z,71.70
2018-03-31T11:36:36.074Z,71.30
2018-03-31T11:39:05.037Z,70.97
2018-03-31T11:41:33.979Z,70.87
2018-03-31T11:44:02.895Z,70.70
2018-03-31T11:46:31.794Z,70.67
2018-03-31T11:49:00.762Z,71.60
2018-03-31T11:51:29.626Z,72.80
2018-03-31T11:53:58.544Z,73.70
2018-03-31T11:56:27.806Z,71.53
2018-03-31T11:58:56.750Z,70.13
2018-03-31T12:01:25.656Z,71.87
2018-03-31T12:03:54.585Z,73.17
2018-03-31T12:06:23.485Z,74.20
2018-03-31T12:08:52.381Z,72.20
2018-03-31T12:11:21.309Z,73.03
2018-03-31T12:13:50.205Z,72.77
2018-03-31T12:16:19.121Z,71.10
2018-03-31T12:18:48.066Z,71.30
2018-03-31T12:21:16.965Z,71.47
2018-03-31T12:23:45.857Z,69.23
2018-03-31T12:26:14.805Z,71.10
2018-03-31T12:28:43.715Z,71.60
2018-03-31T12:31:12.626Z,70.80
2018-03-31T12:33:41.561Z,71.00
2018-03-31T12:36:10.504Z,75.53
2018-03-31T12:38:39.401Z,71.53
2018-03-31T12:41:08.297Z,73.37
2018-03-31T12:43:37.225Z,71.17
2018-03-31T12:46:06.160Z,74.40
2018-03-31T12:48:35.057Z,72.90
2018-03-31T12:51:03.982Z,72.37
2018-03-31T12:53:32.886Z,71.57
2018-03-31T12:56:01.801Z,72.47
2018-03-31T12:58:30.702Z,72.17
2018-03-31T13:00:59.611Z,72.07
2018-03-31T13:03:28.546Z,72.33
2018-03-31T13:05:57.461Z,71.20
2018-03-31T13:08:26.358Z,73.30
2018-03-31T13:10:55.993Z,73.37
2018-03-31T13:13:24.928Z,73.10
2018-03-31T13:15:53.826Z,73.60
2018-03-31T13:18:22.766Z,71.60
2018-03-31T13:20:51.691Z,70.47
2018-03-31T13:23:20.594Z,70.67
2018-03-31T13:25:49.525Z,71.73
2018-03-31T13:28:18.476Z,71.20
2018-03-31T13:30:47.427Z,71.07
2018-03-31T13:33:16.602Z,71.33
2018-03-31T13:35:45.501Z,75.67
2018-03-31T13:38:14.437Z,71.43
2018-03-31T13:40:43.337Z,71.00
2018-03-31T13:43:12.273Z,73.60
2018-03-31T13:45:41.173Z,72.50
2018-03-31T13:48:10.095Z,73.43
2018-03-31T13:50:39.043Z,72.90
2018-03-31T13:53:07.995Z,72.27
2018-03-31T13:55:36.889Z,72.60
2018-03-31T13:58:05.842Z,74.00
2018-03-31T14:00:34.742Z,74.30
2018-03-31T14:03:03.674Z,72.87
2018-03-31T14:05:32.567Z,73.83
2018-03-31T14:08:01.468Z,72.83
2018-03-31T14:10:30.475Z,73.67
2018-03-31T14:12:59.374Z,73.57
2018-03-31T14:15:28.279Z,72.80
2018-03-31T14:17:57.698Z,73.60
2018-03-31T14:20:26.638Z,73.33
2018-03-31T14:22:55.556Z,71.63
2018-03-31T14:25:24.494Z,71.67
2018-03-31T14:27:53.524Z,71.00
2018-03-31T14:30:22.445Z,71.43
2018-03-31T14:32:51.350Z,70.97
2018-03-31T14:35:20.258Z,71.30
2018-03-31T14:37:49.189Z,71.10
2018-03-31T14:40:18.098Z,71.00
2018-03-31T14:42:47.882Z,70.97
2018-03-31T14:45:16.817Z,69.87
2018-03-31T14:47:45.729Z,70.30
2018-03-31T14:50:14.620Z,70.40
2018-03-31T14:52:43.552Z,70.30
2018-03-31T14:55:12.458Z,70.17
2018-03-31T14:57:41.406Z,71.23
2018-03-31T15:00:10.343Z,71.40
2018-03-31T15:02:39.244Z,72.60
2018-03-31T15:05:08.162Z,71.30
2018-03-31T15:07:37.106Z,71.20
2018-03-31T15:10:06.025Z,73.33
2018-03-31T15:12:34.932Z,73.33
2018-03-31T15:15:03.874Z,70.63
2018-03-31T15:17:32.777Z,71.40
2018-03-31T15:20:01.687Z,71.20
2018-03-31T15:22:30.675Z,72.67
2018-03-31T15:24:59.534Z,72.23
2018-03-31T15:27:28.474Z,72.30
2018-03-31T15:29:57.374Z,74.80
2018-03-31T15:32:26.296Z,74.00
2018-03-31T15:34:55.237Z,118.07
2018-03-31T15:37:24.142Z,73.40
2018-03-31T15:39:53.066Z,73.60
2018-03-31T15:42:21.981Z,73.30
2018-03-31T15:44:50.902Z,73.40
2018-03-31T15:47:19.816Z,75.47
2018-03-31T15:49:48.732Z,75.23
2018-03-31T15:52:17.677Z,75.97
2018-03-31T15:54:46.590Z,74.40
2018-03-31T15:57:15.549Z,72.37
2018-03-31T15:59:44.455Z,71.47
2018-03-31T16:02:13.390Z,72.10
2018-03-31T16:04:42.282Z,71.37
2018-03-31T16:07:11.185Z,70.70
2018-03-31T16:09:40.135Z,71.30
2018-03-31T16:12:09.054Z,70.77
2018-03-31T16:14:38.016Z,71.97
2018-03-31T16:17:06.913Z,71.83
2018-03-31T16:19:35.822Z,71.13
2018-03-31T16:22:04.802Z,71.50
2018-03-31T16:24:33.706Z,72.17
2018-03-31T16:27:02.612Z,73.07
2018-03-31T16:29:31.578Z,72.97
2018-03-31T16:32:00.474Z,73.87
2018-03-31T16:34:29.394Z,74.07
2018-03-31T16:36:58.334Z,72.30
2018-03-31T16:39:27.237Z,73.63
2018-03-31T16:41:56.179Z,73.60
2018-03-31T16:44:25.096Z,73.30
2018-03-31T16:46:53.999Z,73.17
2018-03-31T16:49:22.925Z,72.97
2018-03-31T16:51:51.821Z,72.97
2018-03-31T16:54:20.753Z,72.50
2018-03-31T16:56:49.654Z,72.57
2018-03-31T16:59:18.557Z,72.80
2018-03-31T17:01:47.644Z,73.67
2018-03-31T17:04:16.594Z,73.90
2018-03-31T17:06:45.530Z,73.30
2018-03-31T17:09:14.520Z,73.17
2018-03-31T17:11:43.429Z,73.17
2018-03-31T17:14:12.362Z,73.33
2018-03-31T17:16:41.340Z,74.30
2018-03-31T17:19:10.235Z,76.43
2018-03-31T17:21:39.140Z,74.00
2018-03-31T17:24:08.061Z,74.70
2018-03-31T17:26:36.990Z,75.00
2018-03-31T17:29:05.931Z,74.57
2018-03-31T17:31:34.905Z,75.77
2018-03-31T17:34:03.802Z,74.07
2018-03-31T17:36:32.753Z,76.50
2018-03-31T17:39:01.793Z,77.67
2018-03-31T17:41:30.688Z,75.93
2018-03-31T17:43:59.617Z,81.90
2018-03-31T17:46:28.548Z,76.33
2018-03-31T17:48:57.450Z,76.93
2018-03-31T17:51:26.360Z,76.77
2018-03-31T17:53:55.289Z,76.77
2018-03-31T17:56:24.195Z,75.60
2018-03-31T17:58:53.090Z,77.00
2018-03-31T18:01:22.037Z,78.73
2018-03-31T18:03:51.421Z,74.60
2018-03-31T18:06:20.330Z,76.30
2018-03-31T18:08:49.236Z,75.00
2018-03-31T18:11:18.171Z,78.50
2018-03-31T18:13:47.081Z,76.60
2018-03-31T18:16:15.978Z,76.30
2018-03-31T18:18:44.931Z,77.30
2018-03-31T18:21:13.870Z,75.63
2018-03-31T18:23:42.782Z,74.63
2018-03-31T18:26:11.730Z,73.80
2018-03-31T18:28:40.646Z,73.90
2018-03-31T18:31:09.560Z,73.67
2018-03-31T18:33:38.521Z,75.03
2018-03-31T18:36:07.435Z,74.67
2018-03-31T18:38:36.403Z,74.17
2018-03-31T18:41:05.347Z,74.20
2018-03-31T18:43:34.252Z,73.77
2018-03-31T18:46:03.150Z,81.90
2018-03-31T18:48:32.158Z,76.20
2018-03-31T18:51:01.076Z,108.53
2018-03-31T18:53:29.966Z,84.30
2018-03-31T18:55:58.906Z,81.57
2018-03-31T18:58:27.814Z,81.93
2018-03-31T19:00:56.725Z,79.40
2018-03-31T19:03:25.665Z,80.60
2018-03-31T19:05:54.567Z,80.30
2018-03-31T19:08:23.470Z,81.73
2018-03-31T19:10:52.463Z,78.97
2018-03-31T19:13:21.307Z,83.60
2018-03-31T19:15:50.213Z,79.33
2018-03-31T19:18:19.147Z,81.17
2018-03-31T19:20:48.054Z,82.70
2018-03-31T19:23:16.945Z,82.20
2018-03-31T19:25:45.878Z,78.40
2018-03-31T19:28:14.778Z,76.00
2018-03-31T19:30:49.420Z,76.57
2018-03-31T19:33:18.331Z,79.90
2018-03-31T19:35:52.840Z,79.70
2018-03-31T19:38:21.784Z,83.67
2018-03-31T19:40:50.688Z,84.67
2018-03-31T19:43:19.642Z,83.97
2018-03-31T19:45:48.544Z,84.03
2018-03-31T19:48:17.440Z,83.40
2018-03-31T19:50:46.372Z,81.80
2018-03-31T19:53:15.346Z,82.07
2018-03-31T19:55:44.240Z,81.13
2018-03-31T19:58:13.151Z,81.63
2018-03-31T20:00:42.091Z,83.40
2018-03-31T20:03:11.010Z,88.17
2018-03-31T20:05:39.923Z,82.67
2018-03-31T20:08:08.866Z,82.90
2018-03-31T20:10:37.774Z,81.67
2018-03-31T20:13:06.718Z,84.80
2018-03-31T20:15:35.646Z,91.37
2018-03-31T20:18:04.550Z,89.47
2018-03-31T20:20:33.497Z,99.10
2018-03-31T20:23:02.466Z,95.37
2018-03-31T20:25:31.325Z,87.83
2018-03-31T20:28:00.223Z,86.50
2018-03-31T20:30:29.132Z,95.47
2018-03-31T20:32:58.053Z,90.10
2018-03-31T20:35:26.971Z,105.27
2018-03-31T20:37:55.897Z,100.97
2018-03-31T20:40:24.828Z,86.20
2018-03-31T20:42:53.727Z,94.60
2018-03-31T20:45:22.998Z,92.27
2018-03-31T20:47:51.904Z,90.37
2018-03-31T20:50:20.803Z,89.00
2018-03-31T20:52:49.765Z,87.40
2018-03-31T20:55:18.728Z,93.00
2018-03-31T20:57:47.646Z,100.67
2018-03-31T21:00:16.589Z,83.33
2018-03-31T21:02:45.528Z,91.47
2018-03-31T21:05:14.425Z,82.57
2018-03-31T21:07:43.333Z,81.70
2018-03-31T21:10:12.276Z,81.13
2018-03-31T21:12:41.207Z,82.60
2018-03-31T21:15:10.110Z,82.30
2018-03-31T21:17:39.005Z,79.30
2018-03-31T21:20:07.937Z,85.20
2018-03-31T21:22:36.846Z,90.10
2018-03-31T21:25:05.779Z,94.67
2018-03-31T21:27:34.687Z,94.23
2018-03-31T21:30:03.580Z,92.80
2018-03-31T21:32:32.526Z,88.17
2018-03-31T21:35:01.466Z,91.27
2018-03-31T21:37:30.366Z,81.97
2018-03-31T21:39:59.271Z,86.37
2018-03-31T21:42:28.214Z,83.50
2018-03-31T21:44:57.126Z,81.97
2018-03-31T21:47:26.051Z,81.07
2018-03-31T21:49:54.993Z,85.73
2018-03-31T21:52:23.901Z,84.37
2018-03-31T21:54:52.813Z,82.93
2018-03-31T21:57:21.741Z,82.80
2018-03-31T21:59:50.655Z,81.57
2018-03-31T22:02:19.563Z,81.23
2018-03-31T22:04:48.506Z,81.07
2018-03-31T22:07:17.466Z,80.03
2018-03-31T22:09:46.342Z,84.50
2018-03-31T22:12:15.266Z,83.67
2018-03-31T22:14:49.897Z,83.47
2018-03-31T22:17:19.604Z,84.70
2018-03-31T22:19:48.719Z,86.77
2018-03-31T22:22:17.632Z,88.40
2018-03-31T22:24:46.577Z,88.43
2018-03-31T22:27:15.481Z,89.63
2018-03-31T22:29:44.421Z,84.77
2018-03-31T22:32:13.338Z,86.70
2018-03-31T22:34:42.239Z,86.17
2018-03-31T22:37:11.166Z,86.97
2018-03-31T22:39:40.070Z,84.90
2018-03-31T22:42:08.982Z,83.30
2018-03-31T22:44:37.913Z,82.30
2018-03-31T22:47:06.837Z,86.90
2018-03-31T22:49:35.731Z,83.43
2018-03-31T22:52:04.634Z,82.90
2018-03-31T22:54:33.566Z,82.17
2018-03-31T22:57:02.465Z,83.00
2018-03-31T22:59:31.433Z,86.40
2018-03-31T23:02:00.373Z,86.60
2018-03-31T23:04:29.279Z,86.43
2018-03-31T23:06:58.219Z,85.17
2018-03-31T23:09:27.135Z,89.30
2018-03-31T23:11:56.045Z,89.53
2018-03-31T23:14:24.974Z,94.77
2018-03-31T23:16:53.903Z,93.67
2018-03-31T23:19:22.834Z,88.10
2018-03-31T23:21:51.726Z,85.37
2018-03-31T23:24:20.618Z,89.57
2018-03-31T23:26:49.572Z,93.77
2018-03-31T23:29:18.468Z,87.90
2018-03-31T23:31:47.380Z,85.37
2018-03-31T23:34:16.285Z,86.70
2018-03-31T23:36:45.190Z,83.50
2018-03-31T23:39:14.130Z,81.87
2018-03-31T23:41:43.031Z,82.67
2018-03-31T23:44:11.934Z,79.37
2018-03-31T23:46:40.935Z,81.50
2018-03-31T23:49:09.842Z,81.07
2018-03-31T23:51:38.776Z,81.37
2018-03-31T23:54:07.674Z,81.80
2018-03-31T23:56:36.605Z,82.47
2018-03-31T23:59:05.542Z,83.53
